Time;durP1;ratioP1;P1;durP2;ratioP2;P2;SDS_P1;SDS_P2;PMS_P1;PMS_P2;Temp;Humidity;BMP_temperature;BMP_pressure;BME280_temperature;BME280_humidity;BME280_pressure;Samples;Min_cycle;Max_cycle;Signal;HPM_P1;HPM_P2
2022/12/09 00:01:22;;;;;;;16.10;13.23;;;;;;;-1.91;100.00;95322.13;5047086;28;20495;-75
2022/12/09 00:03:49;;;;;;;18.33;15.20;;;;;;;-2.01;100.00;95304.09;5030510;28;20438;-75
2022/12/09 00:06:25;;;;;;;19.27;13.30;;;;;;;-2.21;100.00;95305.03;5045288;28;20458;-75
2022/12/09 00:08:52;;;;;;;23.97;14.27;;;;;;;-2.11;100.00;95314.53;5031889;28;20887;-74
2022/12/09 00:11:22;;;;;;;16.50;12.87;;;;;;;-1.93;100.00;95305.34;5042328;28;20454;-75
2022/12/09 00:13:50;;;;;;;21.07;14.10;;;;;;;-1.85;100.00;95325.47;5030413;28;20433;-74
2022/12/09 00:16:17;;;;;;;19.97;14.33;;;;;;;-1.85;100.00;95325.47;5030341;28;20528;-74
2022/12/09 00:18:44;;;;;;;23.93;14.80;;;;;;;-1.89;100.00;95320.03;5030436;28;20462;-74
2022/12/09 00:21:17;;;;;;;20.20;14.33;;;;;;;-1.93;100.00;95316.47;5030724;28;20840;-75
2022/12/09 00:23:44;;;;;;;24.47;16.53;;;;;;;-1.97;100.00;95320.63;5030273;28;20429;-75
2022/12/09 00:26:11;;;;;;;21.23;16.10;;;;;;;-2.10;100.00;95306.50;5031521;28;20484;-75
2022/12/09 00:28:38;;;;;;;21.90;14.90;;;;;;;-2.26;100.00;95278.41;5016928;28;20433;-75
2022/12/09 00:31:06;;;;;;;21.87;13.50;;;;;;;-2.00;100.00;95291.91;5049983;28;20445;-75
2022/12/09 00:33:34;;;;;;;18.10;13.50;;;;;;;-2.09;100.00;95308.03;5049842;28;20811;-75
2022/12/09 00:36:10;;;;;;;21.97;14.43;;;;;;;-2.33;100.00;95281.31;5034260;28;21002;-75
2022/12/09 00:38:37;;;;;;;24.47;13.93;;;;;;;-2.27;100.00;95303.53;5034204;28;20497;-75
2022/12/09 00:41:04;;;;;;;14.53;11.50;;;;;;;-2.30;100.00;95298.88;5043185;28;20493;-74
2022/12/09 00:43:31;;;;;;;24.60;14.80;;;;;;;-2.23;100.00;95312.28;5033303;28;20441;-75
2022/12/09 00:45:58;;;;;;;18.10;13.80;;;;;;;-2.50;100.00;95278.31;5037066;28;20525;-74
2022/12/09 00:48:26;;;;;;;20.43;14.07;;;;;;;-2.26;100.00;95314.66;5029695;28;20429;-75
2022/12/09 00:50:53;;;;;;;16.53;11.43;;;;;;;-2.31;100.00;95317.25;5030354;28;20492;-74
2022/12/09 00:53:20;;;;;;;22.10;13.13;;;;;;;-2.50;100.00;95297.22;5042082;28;20817;-75
2022/12/09 00:55:47;;;;;;;19.07;12.00;;;;;;;-2.57;100.00;95277.84;5031036;28;20441;-75
2022/12/09 00:58:14;;;;;;;14.57;12.03;;;;;;;-2.34;100.00;95305.63;5029658;28;20469;-75
2022/12/09 01:00:40;;;;;;;17.40;12.70;;;;;;;-2.52;100.00;95288.16;5013338;28;20450;-75
2022/12/09 01:03:12;;;;;;;15.97;11.50;;;;;;;-2.80;100.00;95251.63;5020892;28;20922;-75
2022/12/09 01:05:40;;;;;;;19.13;12.43;;;;;;;-2.61;100.00;95277.63;5035817;28;20426;-75
2022/12/09 01:08:08;;;;;;;18.40;11.80;;;;;;;-2.48;100.00;95299.53;5038279;28;20497;-75
2022/12/09 01:10:37;;;;;;;14.17;11.67;;;;;;;-2.41;100.00;95310.31;5047420;28;20949;-75
2022/12/09 01:13:05;;;;;;;13.90;10.87;;;;;;;-2.53;100.00;95312.50;5013240;28;20469;-75
2022/12/09 01:15:32;;;;;;;18.77;11.53;;;;;;;-2.56;100.00;95313.78;5029103;28;20437;-76
2022/12/09 01:17:59;;;;;;;15.00;11.40;;;;;;;-3.01;100.00;95255.34;5039845;28;20503;-76
2022/12/09 01:20:26;;;;;;;13.90;10.80;;;;;;;-2.93;100.00;95285.03;5012910;28;20561;-76
2022/12/09 01:22:53;;;;;;;18.37;12.43;;;;;;;-3.10;100.00;95272.44;5029402;28;20446;-76
2022/12/09 01:25:20;;;;;;;19.40;13.07;;;;;;;-3.11;100.00;95279.41;5029367;28;20537;-77
2022/12/09 01:27:47;;;;;;;19.33;13.07;;;;;;;-3.18;100.00;95281.53;5040169;28;20491;-76
2022/12/09 01:30:14;;;;;;;25.13;14.20;;;;;;;-3.16;100.00;95302.72;5015908;28;20890;-76
2022/12/09 01:32:42;;;;;;;15.37;12.90;;;;;;;-3.03;100.00;95298.78;5016925;28;20438;-76
2022/12/09 01:35:09;;;;;;;23.00;15.57;;;;;;;-3.30;100.00;95270.72;5033556;28;20552;-76
2022/12/09 01:37:37;;;;;;;24.60;13.63;;;;;;;-3.16;100.00;95307.09;5033477;28;20434;-76
2022/12/09 01:40:06;;;;;;;22.37;13.53;;;;;;;-3.30;100.00;95281.06;5034351;28;20479;-76
2022/12/09 01:42:33;;;;;;;23.77;12.77;;;;;;;-3.24;100.00;95284.38;5017263;28;20508;-76
2022/12/09 01:45:18;;;;;;;19.80;14.37;;;;;;;-3.24;100.00;95295.50;5033422;28;20427;-76
2022/12/09 01:47:47;;;;;;;24.20;15.03;;;;;;;-3.30;100.00;95294.75;5046772;28;20444;-76
2022/12/09 01:50:15;;;;;;;21.90;13.10;;;;;;;-3.56;100.00;95251.94;5033102;28;20994;-76
2022/12/09 01:52:44;;;;;;;25.60;13.77;;;;;;;-3.50;100.00;95245.72;5033142;28;20532;-76
2022/12/09 01:55:11;;;;;;;22.13;14.67;;;;;;;-3.48;100.00;95245.44;5033119;28;20497;-76
2022/12/09 01:57:39;;;;;;;23.27;11.83;;;;;;;-3.27;100.00;95285.69;5016658;28;20444;-76
2022/12/09 02:00:06;;;;;;;25.43;14.30;;;;;;;-3.36;100.00;95259.63;5032755;28;20466;-76
2022/12/09 02:02:45;;;;;;;20.43;14.03;;;;;;;-3.11;100.00;95287.16;5033469;28;20414;-77
2022/12/09 02:05:17;;;;;;;18.63;12.03;;;;;;;-3.20;100.00;95280.25;5033482;28;20476;-77
2022/12/09 02:07:50;;;;;;;19.03;12.70;;;;;;;-3.21;100.00;95289.03;5033697;28;20434;-77
2022/12/09 02:10:18;;;;;;;23.53;12.93;;;;;;;-3.51;100.00;95258.91;5017211;28;20462;-77
2022/12/09 02:13:18;;;;;;;18.13;13.03;;;;;;;-3.31;100.00;95269.19;5042274;28;20451;-77
2022/12/09 02:15:54;;;;;;;20.30;11.70;;;;;;;-3.47;100.00;95241.81;5036652;28;20898;-77
2022/12/09 02:18:21;;;;;;;15.70;11.57;;;;;;;-3.26;100.00;95266.56;5035410;28;20433;-76
2022/12/09 02:20:55;;;;;;;16.87;11.13;;;;;;;-3.47;100.00;95239.25;5033959;28;20473;-77
2022/12/09 02:23:37;;;;;;;14.70;10.30;;;;;;;-3.31;100.00;95274.34;5034282;28;20465;-77
2022/12/09 02:26:21;;;;;;;16.20;10.33;;;;;;;-4.19;100.00;95156.84;5034574;28;20446;-77
2022/12/09 02:29:07;;;;;;;14.60;11.00;;;;;;;-3.51;100.00;95269.22;5034287;28;20453;-77
2022/12/09 02:31:42;;;;;;;13.93;9.60;;;;;;;-3.62;100.00;95271.06;5034353;28;20493;-77
2022/12/09 02:34:20;;;;;;;18.10;11.37;;;;;;;-3.58;100.00;95266.94;5034370;28;20480;-77
2022/12/09 02:37:20;;;;;;;16.03;11.00;;;;;;;-3.52;100.00;95265.09;5031838;28;20446;-77
2022/12/09 02:40:06;;;;;;;13.20;9.80;;;;;;;-3.45;100.00;95263.03;5032230;28;20552;-76
2022/12/09 02:42:38;;;;;;;18.33;10.10;;;;;;;-3.60;100.00;95243.97;5015581;28;20442;-77
2022/12/09 02:45:08;;;;;;;13.00;9.63;;;;;;;-3.46;100.00;95261.47;5042559;28;20488;-77
2022/12/09 02:47:44;;;;;;;16.70;11.63;;;;;;;-3.59;100.00;95226.66;5032444;28;20511;-76
2022/12/09 02:50:16;;;;;;;15.23;9.90;;;;;;;-3.77;100.00;95222.81;5052011;28;20434;-77
2022/12/09 02:52:45;;;;;;;14.33;11.00;;;;;;;-3.61;100.00;95249.38;5035594;28;20440;-77
2022/12/09 02:55:15;;;;;;;13.70;11.77;;;;;;;-3.53;100.00;95259.16;5035773;28;20470;-76
2022/12/09 02:57:42;;;;;;;13.13;8.83;;;;;;;-3.50;100.00;95263.03;5035428;28;20438;-77
2022/12/09 03:00:14;;;;;;;19.23;13.70;;;;;;;-3.74;100.00;95227.47;5051685;28;20526;-77
2022/12/09 03:02:50;;;;;;;19.63;12.23;;;;;;;-3.86;100.00;95219.25;5034340;28;20438;-77
2022/12/09 03:05:40;;;;;;;13.93;10.30;;;;;;;-3.76;100.00;95247.59;5044101;28;20421;-77
2022/12/09 03:08:28;;;;;;;18.33;11.93;;;;;;;-3.78;100.00;95247.09;5043632;28;20930;-77
2022/12/09 03:11:23;;;;;;;16.83;12.10;;;;;;;-3.84;100.00;95245.56;5036229;28;20460;-77
2022/12/09 03:13:58;;;;;;;17.77;10.10;;;;;;;-3.96;100.00;95221.84;5051353;28;20956;-76
2022/12/09 03:16:49;;;;;;;13.77;9.70;;;;;;;-3.90;100.00;95246.59;5052146;28;20491;-76
2022/12/09 03:19:28;;;;;;;16.90;11.73;;;;;;;-3.86;100.00;95247.66;5046660;28;20996;-76
2022/12/09 03:21:59;;;;;;;15.13;10.40;;;;;;;-3.86;100.00;95239.91;5015014;28;20897;-76
2022/12/09 03:24:38;;;;;;;22.13;13.30;;;;;;;-3.65;100.00;95238.03;5031717;28;20425;-76
2022/12/09 03:27:09;;;;;;;19.87;13.63;;;;;;;-3.92;100.00;95210.72;5048917;28;20440;-76
2022/12/09 03:29:41;;;;;;;17.60;12.67;;;;;;;-3.69;100.00;95242.19;5052697;28;20418;-76
2022/12/09 03:32:10;;;;;;;23.50;14.70;;;;;;;-3.90;100.00;95213.81;5052839;28;20540;-76
2022/12/09 03:34:42;;;;;;;79.00;13.90;;;;;;;-3.50;100.00;95239.78;5034998;28;20965;-76
2022/12/09 03:37:10;;;;;;;46.43;13.40;;;;;;;-3.61;100.00;95232.06;5024056;28;20473;-76
2022/12/09 03:39:39;;;;;;;68.87;14.50;;;;;;;-3.70;100.00;95218.16;5033457;28;20835;-76
2022/12/09 03:42:18;;;;;;;44.77;15.30;;;;;;;-3.75;100.00;95218.16;5051054;28;20450;-76
2022/12/09 03:44:54;;;;;;;49.23;14.17;;;;;;;-3.78;100.00;95241.94;5046083;28;20422;-76
2022/12/09 03:47:21;;;;;;;25.77;14.00;;;;;;;-3.95;100.00;95226.75;5032609;28;20425;-76
2022/12/09 03:49:49;;;;;;;35.87;12.13;;;;;;;-4.00;100.00;95200.19;5014822;28;20541;-76
2022/12/09 03:52:22;;;;;;;52.47;15.10;;;;;;;-3.80;100.00;95225.94;5031052;28;20485;-76
2022/12/09 03:54:54;;;;;;;56.10;14.63;;;;;;;-3.88;100.00;95203.22;5020127;28;20499;-76
2022/12/09 03:57:22;;;;;;;60.60;16.80;;;;;;;-4.09;100.00;95184.44;5050864;28;20437;-76
2022/12/09 04:00:00;;;;;;;31.93;11.87;;;;;;;-3.72;100.00;95234.97;5019456;28;20450;-76
2022/12/09 04:02:27;;;;;;;36.00;14.07;;;;;;;-3.83;100.00;95231.63;5032151;28;20508;-76
2022/12/09 04:04:55;;;;;;;69.23;15.27;;;;;;;-4.24;100.00;95158.69;5014436;28;20533;-76
2022/12/09 04:07:21;;;;;;;32.23;11.87;;;;;;;-4.12;100.00;95179.81;5046100;28;20866;-76
2022/12/09 04:09:48;;;;;;;34.57;13.90;;;;;;;-3.89;100.00;95222.34;5050619;28;20487;-76
2022/12/09 04:12:15;;;;;;;29.50;12.30;;;;;;;-4.00;100.00;95179.53;5050494;28;21064;-76
2022/12/09 04:14:42;;;;;;;25.93;11.17;;;;;;;-3.79;100.00;95219.72;5050842;28;20860;-76
2022/12/09 04:17:10;;;;;;;32.77;15.63;;;;;;;-3.81;100.00;95211.47;5051872;28;20475;-76
2022/12/09 04:19:37;;;;;;;21.73;15.17;;;;;;;-4.25;100.00;95162.31;5050312;28;20520;-76
2022/12/09 04:22:04;;;;;;;36.03;15.43;;;;;;;-3.91;100.00;95207.09;5051471;28;20461;-76
2022/12/09 04:24:31;;;;;;;37.07;13.43;;;;;;;-3.82;100.00;95197.03;5051583;28;20434;-76
2022/12/09 04:26:57;;;;;;;28.13;13.33;;;;;;;-3.96;100.00;95193.47;5050170;28;21068;-76
2022/12/09 04:29:25;;;;;;;34.00;13.77;;;;;;;-3.71;100.00;95210.69;5040677;28;20446;-76
2022/12/09 04:31:51;;;;;;;24.27;13.57;;;;;;;-3.80;100.00;95213.03;5030120;28;20993;-76
2022/12/09 04:34:18;;;;;;;32.33;14.63;;;;;;;-3.77;100.00;95211.72;5041239;28;20791;-76
2022/12/09 04:36:46;;;;;;;20.37;14.07;;;;;;;-3.97;100.00;95181.59;5006623;28;20449;-76
2022/12/09 04:39:13;;;;;;;25.67;14.47;;;;;;;-3.98;100.00;95213.59;5027066;28;20646;-76
2022/12/09 04:41:40;;;;;;;28.90;13.50;;;;;;;-4.02;100.00;95195.25;5030798;28;20453;-76
2022/12/09 04:44:07;;;;;;;23.90;14.20;;;;;;;-3.96;100.00;95180.56;5033546;28;20551;-76
2022/12/09 04:46:34;;;;;;;45.17;15.97;;;;;;;-3.64;100.00;95213.75;5020182;28;20437;-76
2022/12/09 04:49:02;;;;;;;50.97;16.50;;;;;;;-3.66;100.00;95215.81;5038821;28;20460;-76
2022/12/09 04:51:28;;;;;;;36.50;15.37;;;;;;;-3.79;100.00;95181.00;5030758;28;20973;-76
2022/12/09 04:54:05;;;;;;;23.73;15.00;;;;;;;-3.77;100.00;95196.22;5030526;28;20453;-76
2022/12/09 04:56:31;;;;;;;26.13;16.40;;;;;;;-3.71;100.00;95195.97;5030164;28;20473;-76
2022/12/09 04:58:58;;;;;;;21.73;14.60;;;;;;;-3.56;100.00;95205.47;5030664;28;20957;-76
2022/12/09 05:01:25;;;;;;;20.23;14.20;;;;;;;-3.88;100.00;95142.03;5041976;28;20557;-76
2022/12/09 05:03:58;;;;;;;26.93;14.63;;;;;;;-3.50;100.00;95217.31;5029791;28;20488;-76
2022/12/09 05:06:25;;;;;;;26.10;16.50;;;;;;;-3.70;100.00;95218.16;5029399;28;20430;-76
2022/12/09 05:08:53;;;;;;;24.80;14.23;;;;;;;-3.90;100.00;95172.50;5031245;28;20422;-76
2022/12/09 05:11:22;;;;;;;24.40;13.83;;;;;;;-3.83;100.00;95185.16;5031033;28;20446;-76
2022/12/09 05:13:51;;;;;;;21.17;14.80;;;;;;;-3.70;100.00;95217.38;5030161;28;20953;-77
2022/12/09 05:16:19;;;;;;;26.37;14.80;;;;;;;-3.51;100.00;95207.25;5031142;28;20872;-77
2022/12/09 05:18:47;;;;;;;19.80;14.40;;;;;;;-3.59;100.00;95204.19;5029623;28;20441;-76
2022/12/09 05:21:18;;;;;;;23.13;15.50;;;;;;;-3.66;100.00;95202.91;5029332;28;20474;-77
2022/12/09 05:23:45;;;;;;;22.00;15.30;;;;;;;-3.83;100.00;95190.31;5029715;28;20485;-77
2022/12/09 05:26:15;;;;;;;22.43;15.77;;;;;;;-3.94;100.00;95145.69;5029544;28;20887;-77
2022/12/09 05:28:42;;;;;;;25.20;15.80;;;;;;;-3.76;100.00;95164.97;5031001;28;20477;-77
2022/12/09 05:31:13;;;;;;;25.07;15.60;;;;;;;-3.70;100.00;95182.00;5013255;28;20982;-76
2022/12/09 05:33:41;;;;;;;27.33;16.73;;;;;;;-3.78;100.00;95187.72;5010270;28;20442;-77
2022/12/09 05:36:10;;;;;;;26.77;17.10;;;;;;;-4.07;100.00;95148.84;5022434;28;20442;-77
2022/12/09 05:38:38;;;;;;;30.50;17.60;;;;;;;-3.92;100.00;95181.56;5029406;28;20814;-77
2022/12/09 05:41:07;;;;;;;28.10;18.90;;;;;;;-3.92;100.00;95176.41;5030883;28;20476;-76
2022/12/09 05:43:35;;;;;;;28.90;17.73;;;;;;;-4.42;100.00;95095.50;5033001;28;20444;-77
2022/12/09 05:46:03;;;;;;;26.97;16.10;;;;;;;-3.91;100.00;95167.63;5016470;28;20955;-77
2022/12/09 05:48:31;;;;;;;47.13;23.37;;;;;;;-4.05;100.00;95146.75;5030202;28;20451;-77
2022/12/09 05:51:00;;;;;;;42.80;22.77;;;;;;;-3.98;100.00;95162.75;5029455;28;20450;-77
2022/12/09 05:53:28;;;;;;;43.87;20.27;;;;;;;-3.93;100.00;95128.41;5029471;28;20438;-77
2022/12/09 05:55:56;;;;;;;22.87;16.87;;;;;;;-4.11;100.00;95122.03;5029364;28;20472;-77
2022/12/09 05:58:23;;;;;;;26.43;16.50;;;;;;;-4.00;100.00;95161.47;5029707;28;20893;-77
2022/12/09 06:00:50;;;;;;;23.40;17.20;;;;;;;-4.04;100.00;95147.53;5029280;28;20478;-77
2022/12/09 06:03:17;;;;;;;22.93;16.17;;;;;;;-4.13;100.00;95113.78;5038662;28;20805;-77
2022/12/09 06:05:44;;;;;;;26.37;15.00;;;;;;;-3.99;100.00;95112.19;5035641;28;20858;-76
2022/12/09 06:08:11;;;;;;;23.10;17.40;;;;;;;-4.15;100.00;95118.41;4997229;28;20443;-77
2022/12/09 06:10:40;;;;;;;19.00;13.20;;;;;;;-3.66;100.00;95141.72;5012842;28;20859;-76
2022/12/09 06:13:07;;;;;;;21.63;14.60;;;;;;;-3.69;100.00;95102.75;5039033;28;20944;-77
2022/12/09 06:15:34;;;;;;;20.40;14.43;;;;;;;-3.39;100.00;95148.28;5046853;28;20844;-77
2022/12/09 06:18:02;;;;;;;25.23;16.00;;;;;;;-3.60;100.00;95108.91;5031319;28;20469;-77
2022/12/09 06:20:29;;;;;;;17.07;13.60;;;;;;;-3.69;100.00;95139.66;5033039;28;20892;-77
2022/12/09 06:22:56;;;;;;;23.77;14.97;;;;;;;-3.66;100.00;95141.72;5052770;28;20448;-77
2022/12/09 06:25:23;;;;;;;24.30;15.50;;;;;;;-4.06;100.00;95088.44;5035417;28;20446;-77
2022/12/09 06:27:52;;;;;;;23.20;15.30;;;;;;;-3.67;100.00;95141.97;5032615;28;20492;-76
2022/12/09 06:30:18;;;;;;;21.43;16.00;;;;;;;-3.99;100.00;95108.81;5050144;28;20449;-77
2022/12/09 06:32:46;;;;;;;22.27;14.77;;;;;;;-3.80;100.00;95119.31;5057871;28;20887;-77
2022/12/09 06:35:13;;;;;;;15.50;13.30;;;;;;;-4.03;100.00;95077.59;5054599;28;20879;-77
2022/12/09 06:37:41;;;;;;;13.47;11.40;;;;;;;-3.93;100.00;95134.34;5026111;28;20869;-74
2022/12/09 06:40:08;;;;;;;19.97;13.40;;;;;;;-4.04;100.00;95101.06;5034158;28;21001;-74
2022/12/09 06:42:36;;;;;;;17.60;13.00;;;;;;;-3.85;100.00;95119.34;5016014;28;20444;-73
2022/12/09 06:45:03;;;;;;;15.30;11.23;;;;;;;-4.27;100.00;95064.53;5042410;28;20430;-74
2022/12/09 06:47:31;;;;;;;23.80;12.50;;;;;;;-3.90;100.00;95120.88;5037070;28;20501;-74
2022/12/09 06:50:00;;;;;;;19.00;13.67;;;;;;;-4.08;100.00;95059.56;5015403;28;20440;-73
2022/12/09 06:52:33;;;;;;;25.10;14.57;;;;;;;-3.80;100.00;95090.91;5044038;28;20482;-73
2022/12/09 06:55:00;;;;;;;24.23;15.40;;;;;;;-3.62;100.00;95116.13;5052115;28;20457;-73
2022/12/09 06:57:27;;;;;;;22.43;15.73;;;;;;;-3.66;100.00;95118.47;5051916;28;20444;-73
2022/12/09 06:59:55;;;;;;;25.00;14.40;;;;;;;-3.81;100.00;95105.63;5051900;28;20516;-76
2022/12/09 07:02:21;;;;;;;20.67;14.53;;;;;;;-4.01;100.00;95067.78;5036976;28;20520;-75
2022/12/09 07:04:53;;;;;;;23.57;14.97;;;;;;;-3.65;100.00;95120.00;5030868;28;20947;-76
2022/12/09 07:07:21;;;;;;;26.17;17.70;;;;;;;-3.49;100.00;95125.09;5033209;28;20426;-76
2022/12/09 07:09:48;;;;;;;28.23;15.90;;;;;;;-3.76;100.00;95084.19;5048604;28;20812;-76
2022/12/09 07:12:16;;;;;;;28.60;16.97;;;;;;;-3.44;100.00;95130.25;5031565;28;20556;-76
2022/12/09 07:14:43;;;;;;;28.10;17.67;;;;;;;-3.57;100.00;95111.72;5041444;28;20487;-76
2022/12/09 07:17:18;;;;;;;32.27;19.27;;;;;;;-3.42;100.00;95128.16;5051435;28;20857;-76
2022/12/09 07:19:45;;;;;;;28.43;18.07;;;;;;;-3.30;100.00;95131.19;5051562;28;20424;-76
2022/12/09 07:22:13;;;;;;;28.30;18.53;;;;;;;-3.79;100.00;95058.91;5052742;28;20460;-76
2022/12/09 07:24:40;;;;;;;23.97;16.97;;;;;;;-3.24;100.00;95137.09;5051460;28;20843;-76
2022/12/09 07:27:09;;;;;;;30.87;20.57;;;;;;;-3.34;100.00;95117.25;5035900;28;20539;-76
2022/12/09 07:29:44;;;;;;;27.87;15.43;;;;;;;-3.21;100.00;95139.13;5035483;28;20433;-76
2022/12/09 07:32:11;;;;;;;24.27;16.93;;;;;;;-3.54;100.00;95100.06;5044460;28;20458;-76
2022/12/09 07:34:38;;;;;;;23.73;16.03;;;;;;;-3.51;100.00;95081.47;5031299;28;20500;-75
2022/12/09 07:37:06;;;;;;;21.97;14.53;;;;;;;-3.15;100.00;95120.75;5031295;28;20914;-76
2022/12/09 07:39:32;;;;;;;27.00;17.73;;;;;;;-3.41;100.00;95101.28;5031286;28;20805;-76
2022/12/09 07:41:59;;;;;;;22.00;15.40;;;;;;;-3.13;100.00;95126.44;5032408;28;20523;-76
2022/12/09 07:44:29;;;;;;;23.87;16.67;;;;;;;-3.20;100.00;95100.13;5024608;28;20471;-76
2022/12/09 07:46:56;;;;;;;24.97;16.63;;;;;;;-3.31;100.00;95099.44;5014823;28;20435;-76
2022/12/09 07:49:23;;;;;;;23.43;17.50;;;;;;;-3.09;100.00;95124.84;5031085;28;20951;-76
2022/12/09 07:51:51;;;;;;;22.57;16.03;;;;;;;-3.48;100.00;95057.66;5031153;28;20441;-76
2022/12/09 07:54:19;;;;;;;21.30;14.53;;;;;;;-3.35;100.00;95071.78;5031100;28;20469;-76
2022/12/09 07:56:47;;;;;;;23.73;14.47;;;;;;;-3.01;100.00;95132.03;5032312;28;20432;-76
2022/12/09 07:59:15;;;;;;;23.27;13.80;;;;;;;-3.15;100.00;95107.06;5014566;28;20438;-76
2022/12/09 08:01:43;;;;;;;19.07;15.23;;;;;;;-2.98;100.00;95107.44;5030935;28;20521;-77
2022/12/09 08:04:10;;;;;;;21.10;15.00;;;;;;;-2.84;100.00;95120.53;5030673;28;20517;-75
2022/12/09 08:06:38;;;;;;;19.53;15.30;;;;;;;-2.83;100.00;95116.91;5041208;28;20479;-77
2022/12/09 08:09:10;;;;;;;21.03;14.27;;;;;;;-2.89;100.00;95111.00;5055767;28;20834;-76
2022/12/09 08:11:37;;;;;;;21.33;14.67;;;;;;;-2.66;100.00;95148.34;5056644;28;20993;-76
2022/12/09 08:14:07;;;;;;;30.17;20.80;;;;;;;-2.64;100.00;95143.66;5053943;28;20433;-75
2022/12/09 08:16:39;;;;;;;40.50;26.10;;;;;;;-2.73;100.00;95127.94;5039126;28;20966;-74
2022/12/09 08:19:09;;;;;;;34.33;27.00;;;;;;;-2.61;100.00;95143.09;5014505;28;20545;-73
2022/12/09 08:21:37;;;;;;;34.47;24.53;;;;;;;-2.62;100.00;95140.78;5030180;28;20990;-73
2022/12/09 08:24:06;;;;;;;25.77;18.23;;;;;;;-2.79;100.00;95105.00;5030253;28;20451;-73
2022/12/09 08:26:34;;;;;;;24.70;18.30;;;;;;;-2.88;100.00;95091.88;5013678;28;20881;-72
2022/12/09 08:29:05;;;;;;;27.07;19.17;;;;;;;-2.82;100.00;95102.94;5030303;28;20536;-74
2022/12/09 08:31:32;;;;;;;24.33;17.50;;;;;;;-2.60;100.00;95125.78;5030294;28;20545;-74
2022/12/09 08:34:07;;;;;;;21.70;16.10;;;;;;;-2.63;100.00;95116.75;5030352;28;20879;-74
2022/12/09 08:36:35;;;;;;;24.30;17.27;;;;;;;-2.72;100.00;95088.09;5016994;28;20430;-75
2022/12/09 08:39:02;;;;;;;24.50;18.63;;;;;;;-2.59;100.00;95117.72;5023820;28;20441;-75
2022/12/09 08:41:34;;;;;;;27.20;17.37;;;;;;;-2.76;100.00;95089.69;5049358;28;20904;-73
2022/12/09 08:44:12;;;;;;;28.00;18.53;;;;;;;-2.61;100.00;95116.47;5049779;28;20449;-73
2022/12/09 08:46:41;;;;;;;23.67;16.83;;;;;;;-2.58;100.00;95108.16;5030997;28;20433;-74
2022/12/09 08:49:08;;;;;;;23.97;17.20;;;;;;;-2.69;100.00;95064.28;5013612;28;20446;-74
2022/12/09 08:51:36;;;;;;;26.00;20.23;;;;;;;-2.46;100.00;95091.22;5031198;28;20446;-74
2022/12/09 08:54:04;;;;;;;36.17;25.43;;;;;;;-2.60;100.00;95071.44;5043681;28;20537;-74
2022/12/09 08:56:31;;;;;;;37.47;22.40;;;;;;;-2.34;100.00;95090.84;5050023;28;20442;-74
2022/12/09 08:58:58;;;;;;;37.73;26.13;;;;;;;-2.36;100.00;95087.00;5049022;28;20467;-74
2022/12/09 09:01:31;;;;;;;33.27;21.10;;;;;;;-2.42;100.00;95066.34;5038556;28;20463;-74
2022/12/09 09:04:11;;;;;;;28.03;19.13;;;;;;;-2.20;100.00;95085.78;5025149;28;20438;-75
2022/12/09 09:06:40;;;;;;;22.50;18.03;;;;;;;-2.49;100.00;95039.25;5029660;28;20452;-72
2022/12/09 09:09:09;;;;;;;23.10;15.00;;;;;;;-1.97;100.00;95072.06;5029895;28;20433;-74
2022/12/09 09:11:37;;;;;;;21.97;14.90;;;;;;;-2.32;100.00;95031.06;5029417;28;20454;-74
2022/12/09 09:14:05;;;;;;;22.10;15.73;;;;;;;-1.95;100.00;95075.13;5034284;28;20447;-74
2022/12/09 09:16:33;;;;;;;25.80;17.70;;;;;;;-1.88;100.00;95069.59;5049927;28;20438;-74
2022/12/09 09:19:04;;;;;;;20.90;14.10;;;;;;;-2.09;100.00;95019.91;5033006;28;20433;-73
2022/12/09 09:21:33;;;;;;;24.27;16.40;;;;;;;-2.05;100.00;95070.06;5038008;28;20596;-73
2022/12/09 09:24:00;;;;;;;19.13;14.30;;;;;;;-2.10;100.00;95045.03;5029442;28;20440;-74
2022/12/09 09:26:28;;;;;;;22.70;16.47;;;;;;;-2.00;100.00;95041.56;5013238;28;20533;-72
2022/12/09 09:28:56;;;;;;;17.60;13.40;;;;;;;-1.77;100.00;95059.91;5029344;28;20434;-72
2022/12/09 09:31:24;;;;;;;22.77;16.40;;;;;;;-1.66;100.00;95066.50;5029244;28;20565;-75
2022/12/09 09:33:52;;;;;;;18.37;14.63;;;;;;;-1.71;100.00;95059.56;5029466;28;20431;-75
2022/12/09 09:36:22;;;;;;;20.27;14.50;;;;;;;-1.54;100.00;95059.84;5013198;28;20453;-74
2022/12/09 09:38:52;;;;;;;21.00;13.80;;;;;;;-1.48;100.00;95052.75;5030861;28;20961;-74
2022/12/09 09:41:37;;;;;;;23.73;15.20;;;;;;;-1.45;100.00;95051.44;5046013;28;20859;-75
2022/12/09 09:44:30;;;;;;;20.87;14.53;;;;;;;-1.37;100.00;95054.16;5032790;28;20434;-74
2022/12/09 09:46:58;;;;;;;21.00;14.90;;;;;;;-1.25;100.00;95053.72;5017522;28;20442;-73
2022/12/09 09:50:13;;;;;;;21.80;14.97;;;;;;;-1.04;100.00;95047.19;5032539;28;20472;-74
2022/12/09 09:52:41;;;;;;;17.67;13.20;;;;;;;-0.88;100.00;95042.50;5020920;28;20450;-74
2022/12/09 09:55:17;;;;;;;18.30;12.30;;;;;;;-0.76;100.00;95050.63;5045763;28;20437;-74
2022/12/09 09:58:09;;;;;;;20.10;11.27;;;;;;;-0.81;100.00;95048.09;5016443;28;20511;-74
2022/12/09 10:00:42;;;;;;;14.97;10.27;;;;;;;-0.69;100.00;95042.44;5034167;28;20453;-74
2022/12/09 10:03:30;;;;;;;15.50;10.33;;;;;;;-1.20;100.00;94978.47;5032998;28;20464;-74
2022/12/09 10:06:05;;;;;;;12.87;9.90;;;;;;;-0.75;100.00;95033.97;5032844;28;20441;-74
2022/12/09 10:08:43;;;;;;;12.90;10.70;;;;;;;-0.69;100.00;95038.00;5032938;28;20539;-75
2022/12/09 10:11:19;;;;;;;13.60;10.83;;;;;;;-0.62;100.00;95040.25;5034117;28;20459;-74
2022/12/09 10:13:53;;;;;;;11.97;10.50;;;;;;;-0.75;100.00;95030.63;5032742;28;20441;-74
2022/12/09 10:16:23;;;;;;;10.30;9.07;;;;;;;-0.68;100.00;95033.59;5032892;28;20506;-74
2022/12/09 10:19:02;;;;;;;12.90;9.63;;;;;;;-0.67;100.00;95030.75;5032673;28;20454;-74
2022/12/09 10:21:40;;;;;;;10.33;9.10;;;;;;;-0.91;100.00;95023.09;5044598;28;20526;-74
2022/12/09 10:24:16;;;;;;;12.40;9.50;;;;;;;-0.77;100.00;95024.94;5052535;28;20434;-74
2022/12/09 10:27:07;;;;;;;11.43;9.17;;;;;;;-0.86;100.00;95014.47;5052384;28;20444;-74
2022/12/09 10:29:44;;;;;;;10.93;9.40;;;;;;;-0.73;100.00;95047.44;5041128;28;20438;-74
2022/12/09 10:32:16;;;;;;;11.10;9.07;;;;;;;-0.62;100.00;95041.03;5017473;28;21068;-73
2022/12/09 10:34:46;;;;;;;9.40;7.83;;;;;;;-0.55;100.00;95040.63;5033782;28;20442;-73
2022/12/09 10:37:24;;;;;;;12.77;9.40;;;;;;;-0.80;100.00;95018.53;5033121;28;20946;-72
2022/12/09 10:39:59;;;;;;;11.97;9.03;;;;;;;-0.66;100.00;95044.47;5051636;28;20425;-72
2022/12/09 10:45:26;;;;;;;10.27;8.67;;;;;;;-0.67;100.00;95006.59;5034549;28;20931;-73
2022/12/09 10:48:28;;;;;;;11.30;9.10;;;;;;;-0.49;100.00;95030.94;5039253;28;20963;-73
2022/12/09 10:51:02;;;;;;;12.27;9.60;;;;;;;-0.39;100.00;95033.34;5053485;28;20540;-73
2022/12/09 10:53:31;;;;;;;14.50;9.27;;;;;;;-0.21;100.00;95029.88;5034709;28;20432;-73
2022/12/09 10:56:00;;;;;;;11.30;8.30;;;;;;;-0.08;100.00;95026.50;5035679;28;20460;-75
2022/12/09 10:58:29;;;;;;;10.77;8.37;;;;;;;0.23;100.00;95024.03;5053149;28;20955;-74
2022/12/09 11:01:04;;;;;;;15.40;10.10;;;;;;;0.20;100.00;95000.47;5037559;28;20473;-77
2022/12/09 11:03:38;;;;;;;10.53;8.20;;;;;;;0.02;100.00;94978.03;5037337;28;20449;-77
2022/12/09 11:06:19;;;;;;;10.77;8.00;;;;;;;0.55;100.00;95015.31;5056446;28;20425;-76
2022/12/09 11:08:53;;;;;;;8.83;7.90;;;;;;;0.43;100.00;95019.47;5055824;28;20950;-76
2022/12/09 11:11:48;;;;;;;12.13;8.83;;;;;;;0.45;100.00;94999.16;5051849;28;20544;-76
2022/12/09 11:14:21;;;;;;;11.27;8.67;;;;;;;0.63;100.00;95020.84;5052798;28;20466;-76
2022/12/09 11:16:54;;;;;;;8.80;6.90;;;;;;;0.32;100.00;95021.53;5025982;28;20474;-76
2022/12/09 11:19:29;;;;;;;8.10;7.30;;;;;;;0.26;100.00;95004.50;5037056;28;20458;-76
2022/12/09 11:22:23;;;;;;;9.77;8.17;;;;;;;0.29;100.00;95011.72;5035394;28;20493;-76
2022/12/09 11:24:53;;;;;;;9.03;7.60;;;;;;;0.26;100.00;95007.09;5036971;28;20439;-75
2022/12/09 11:27:33;;;;;;;8.93;7.43;;;;;;;0.15;100.00;94977.22;5027802;28;20473;-74
2022/12/09 11:30:18;;;;;;;9.00;7.30;;;;;;;0.18;100.00;95000.00;5032313;28;20411;-74
2022/12/09 11:33:13;;;;;;;14.40;7.97;;;;;;;0.20;100.00;95010.88;5052121;28;20437;-74